createdAt,value
2019-02-04T00:04:14.210Z,3.10
2019-02-04T00:09:16.199Z,3.07
2019-02-04T00:14:18.062Z,1.47
2019-02-04T00:19:19.804Z,1.90
2019-02-04T00:24:21.924Z,1.70
2019-02-04T00:29:23.654Z,2.50
2019-02-04T00:34:25.495Z,2.10
2019-02-04T00:39:27.162Z,1.40
2019-02-04T00:44:28.950Z,2.33
2019-02-04T00:49:31.226Z,2.07
2019-02-04T00:54:33.316Z,2.00
2019-02-04T00:59:35.087Z,2.43
2019-02-04T01:04:36.870Z,2.00
2019-02-04T01:09:38.548Z,2.20
2019-02-04T01:14:40.326Z,2.70
2019-02-04T01:19:42.505Z,3.03
2019-02-04T01:24:44.729Z,2.80
2019-02-04T01:29:46.473Z,2.70
2019-02-04T01:34:48.946Z,2.70
2019-02-04T01:39:51.054Z,2.70
2019-02-04T01:44:53.748Z,2.03
2019-02-04T01:49:55.463Z,1.40
2019-02-04T01:54:57.204Z,1.43
2019-02-04T01:59:59.185Z,2.60
2019-02-04T02:05:00.827Z,1.83
2019-02-04T02:10:06.505Z,1.63
2019-02-04T02:15:08.284Z,2.67
2019-02-04T02:20:13.773Z,2.13
2019-02-04T02:25:16.178Z,2.73
2019-02-04T02:30:23.923Z,2.00
2019-02-04T02:35:25.771Z,2.37
2019-02-04T02:40:30.198Z,1.87
2019-02-04T02:45:32.992Z,2.40
2019-02-04T02:50:34.682Z,2.13
2019-02-04T02:55:36.461Z,2.07
2019-02-04T03:00:38.583Z,1.97
2019-02-04T03:05:40.294Z,2.80
2019-02-04T03:10:42.520Z,1.90
2019-02-04T03:15:44.540Z,2.50
2019-02-04T03:20:49.396Z,1.57
2019-02-04T03:25:54.178Z,3.37
2019-02-04T03:30:56.319Z,2.60
2019-02-04T03:35:58.968Z,1.83
2019-02-04T03:41:01.283Z,3.10
2019-02-04T03:46:03.592Z,2.40
2019-02-04T03:51:07.086Z,1.37
2019-02-04T03:56:09.615Z,2.13
2019-02-04T04:01:11.291Z,2.30
2019-02-04T04:06:13.071Z,2.70
2019-02-04T04:11:16.692Z,2.73
2019-02-04T04:16:22.445Z,3.03
2019-02-04T04:21:24.582Z,3.30
2019-02-04T04:26:26.427Z,3.50
2019-02-04T04:31:28.556Z,1.70
2019-02-04T04:36:31.288Z,3.57
2019-02-04T04:41:32.974Z,4.60
2019-02-04T04:46:34.769Z,3.20
2019-02-04T04:51:36.468Z,3.20
2019-02-04T04:56:38.175Z,3.20
2019-02-04T05:01:42.025Z,1.70
2019-02-04T05:06:43.821Z,2.70
2019-02-04T05:11:45.523Z,3.20
2019-02-04T05:16:47.482Z,2.50
2019-02-04T05:21:49.240Z,1.77
2019-02-04T05:26:51.870Z,2.27
2019-02-04T05:31:54.127Z,3.40
2019-02-04T05:36:55.981Z,5.43
2019-02-04T05:41:57.676Z,2.93
2019-02-04T05:47:06.405Z,2.57
2019-02-04T05:52:08.345Z,3.07
2019-02-04T05:57:09.991Z,1.53
2019-02-04T06:02:11.893Z,3.60
2019-02-04T06:07:15.441Z,4.70
2019-02-04T06:12:17.441Z,2.20
2019-02-04T06:17:19.191Z,3.00
2019-02-04T06:22:20.956Z,2.47
2019-02-04T06:27:23.054Z,2.57
2019-02-04T06:32:24.987Z,3.80
2019-02-04T06:37:30.456Z,4.00
2019-02-04T06:42:32.153Z,4.70
2019-02-04T06:47:33.858Z,3.57
2019-02-04T06:52:35.561Z,5.10
2019-02-04T06:57:37.253Z,5.03
2019-02-04T07:02:38.871Z,3.20
2019-02-04T07:07:40.617Z,3.40
2019-02-04T07:12:43.024Z,5.20
2019-02-04T07:17:44.829Z,5.43
2019-02-04T07:22:47.206Z,4.27
2019-02-04T07:27:49.048Z,5.00
2019-02-04T07:32:51.160Z,3.93
2019-02-04T07:37:53.161Z,2.87
2019-02-04T07:42:55.266Z,5.53
2019-02-04T07:47:57.063Z,5.70
2019-02-04T07:52:58.718Z,4.97
2019-02-04T07:58:00.461Z,5.27
2019-02-04T08:03:02.164Z,3.73
2019-02-04T08:08:03.866Z,6.93
2019-02-04T08:13:05.848Z,5.50
2019-02-04T08:18:07.879Z,6.50
2019-02-04T08:23:09.693Z,4.00
2019-02-04T08:28:11.813Z,5.00
2019-02-04T08:33:13.602Z,5.33
2019-02-04T08:38:15.289Z,8.87
2019-02-04T08:43:17.296Z,6.53
2019-02-04T08:48:19.146Z,9.03
2019-02-04T08:53:20.890Z,9.63
2019-02-04T08:58:22.544Z,7.60
2019-02-04T09:03:24.282Z,7.40
2019-02-04T09:08:26.137Z,7.47
2019-02-04T09:13:28.909Z,8.30
2019-02-04T09:18:30.706Z,10.40
2019-02-04T09:23:32.689Z,8.77
2019-02-04T09:28:34.491Z,7.37
2019-02-04T09:33:36.216Z,13.53
2019-02-04T09:38:37.919Z,11.97
2019-02-04T09:43:40.329Z,8.47
2019-02-04T09:48:42.079Z,13.63
2019-02-04T09:53:43.821Z,14.00
2019-02-04T09:58:45.913Z,15.37
2019-02-04T10:03:47.703Z,8.53
2019-02-04T10:08:49.362Z,10.67
2019-02-04T10:13:51.643Z,12.57
2019-02-04T10:18:53.623Z,12.00
2019-02-04T10:23:55.514Z,8.10
2019-02-04T10:28:57.304Z,10.67
2019-02-04T10:33:59.013Z,12.53
2019-02-04T10:39:01.011Z,7.67
2019-02-04T10:44:03.939Z,5.80
2019-02-04T10:49:06.140Z,10.57
2019-02-04T10:54:08.346Z,9.47
2019-02-04T10:59:10.064Z,6.90
2019-02-04T11:04:11.899Z,7.90
2019-02-04T11:09:13.978Z,9.10
2019-02-04T11:14:16.126Z,8.47
2019-02-04T11:19:18.358Z,7.80
2019-02-04T11:24:20.238Z,7.20
2019-02-04T11:29:22.808Z,9.50
2019-02-04T11:34:36.276Z,6.60
2019-02-04T11:39:38.705Z,6.20
2019-02-04T11:44:40.386Z,9.53
2019-02-04T11:49:42.055Z,6.40
2019-02-04T11:54:43.788Z,5.00
2019-02-04T11:59:45.879Z,10.23
2019-02-04T12:04:47.540Z,7.33
2019-02-04T12:09:49.895Z,9.20
2019-02-04T12:14:51.629Z,7.57
2019-02-04T12:19:53.345Z,6.60
2019-02-04T12:24:55.101Z,7.60
2019-02-04T12:30:00.237Z,8.93
2019-02-04T12:35:04.804Z,7.40
2019-02-04T12:40:12.276Z,7.27
2019-02-04T12:45:19.953Z,5.93
2019-02-04T12:50:21.721Z,5.77
2019-02-04T12:55:28.551Z,7.30
2019-02-04T13:00:31.519Z,9.37
2019-02-04T13:05:42.178Z,8.80
2019-02-04T13:10:44.289Z,6.30
2019-02-04T13:15:46.157Z,9.47
2019-02-04T13:20:47.925Z,7.00
2019-02-04T13:25:50.243Z,8.80
2019-02-04T13:30:52.183Z,7.90
2019-02-04T13:35:54.915Z,7.43
2019-02-04T13:41:07.472Z,9.23
2019-02-04T13:46:00.797Z,11.30
2019-02-04T13:51:02.557Z,8.77
2019-02-04T13:56:04.530Z,7.93
2019-02-04T14:01:06.585Z,7.83
2019-02-04T14:06:08.730Z,8.20
2019-02-04T14:11:10.734Z,10.13
2019-02-04T14:16:12.543Z,8.53
2019-02-04T14:21:14.254Z,8.97
2019-02-04T14:26:16.495Z,11.13
2019-02-04T14:31:18.590Z,10.60
2019-02-04T14:36:20.680Z,7.17
2019-02-04T14:41:22.902Z,7.27
2019-02-04T14:46:37.227Z,5.77
2019-02-04T14:51:48.722Z,8.57
2019-02-04T14:57:08.564Z,5.50
2019-02-04T15:02:32.306Z,10.67
2019-02-04T15:08:08.271Z,7.73
2019-02-04T15:13:17.113Z,7.50
2019-02-04T15:18:52.962Z,6.60
2019-02-04T15:24:10.606Z,9.37
2019-02-04T15:29:28.658Z,11.50
2019-02-04T15:34:40.626Z,5.13
2019-02-04T15:39:55.291Z,5.47
2019-02-04T15:45:12.668Z,7.47
2019-02-04T15:50:30.021Z,6.90
2019-02-04T15:55:31.999Z,6.70
2019-02-04T16:00:34.319Z,5.37
2019-02-04T16:05:36.545Z,7.00
2019-02-04T16:10:38.666Z,4.80
2019-02-04T16:15:42.445Z,10.87
2019-02-04T16:20:44.282Z,8.77
2019-02-04T16:25:46.019Z,9.13
2019-02-04T16:30:48.166Z,5.77
2019-02-04T16:35:50.327Z,9.13
2019-02-04T16:40:53.895Z,10.20
2019-02-04T16:45:55.642Z,6.60
2019-02-04T16:51:10.871Z,5.37
2019-02-04T16:56:01.005Z,6.40
2019-02-04T17:01:04.465Z,10.40
2019-02-04T17:06:06.369Z,9.00
2019-02-04T17:11:08.499Z,7.00
2019-02-04T17:16:10.151Z,9.63
2019-02-04T17:21:11.913Z,8.00
2019-02-04T17:26:13.673Z,13.30
2019-02-04T17:31:16.296Z,6.97
2019-02-04T17:36:18.795Z,10.90
2019-02-04T17:41:20.566Z,9.93
2019-02-04T17:46:22.341Z,11.90
2019-02-04T17:51:24.028Z,9.83
2019-02-04T17:56:25.789Z,12.43
2019-02-04T18:01:27.751Z,12.87
2019-02-04T18:06:31.567Z,15.53
2019-02-04T18:11:33.108Z,10.03
2019-02-04T18:16:34.781Z,13.20
2019-02-04T18:21:36.988Z,11.80
2019-02-04T18:26:38.882Z,13.03
2019-02-04T18:31:49.340Z,17.40
2019-02-04T18:36:54.242Z,10.47
2019-02-04T18:41:57.743Z,12.20
2019-02-04T18:47:00.235Z,16.37
2019-02-04T18:52:02.142Z,16.20
2019-02-04T18:57:06.753Z,12.40
2019-02-04T19:02:12.206Z,16.77
2019-02-04T19:07:14.282Z,16.87
2019-02-04T19:12:16.370Z,13.60
2019-02-04T19:17:19.311Z,14.47
2019-02-04T19:22:21.490Z,15.90
2019-02-04T19:27:26.676Z,19.37
2019-02-04T19:32:29.645Z,17.43
2019-02-04T19:37:32.748Z,11.47
2019-02-04T19:42:35.013Z,14.50
2019-02-04T19:47:36.987Z,12.10
2019-02-04T19:52:41.781Z,17.67
2019-02-04T19:57:44.778Z,15.70
2019-02-04T20:02:47.774Z,16.80
2019-02-04T20:07:49.812Z,14.23
2019-02-04T20:12:51.942Z,11.73
2019-02-04T20:17:54.515Z,22.20
2019-02-04T20:22:57.344Z,16.07
2019-02-04T20:28:00.209Z,14.07
2019-02-04T20:33:02.540Z,10.77
2019-02-04T20:38:09.248Z,11.87
2019-02-04T20:43:11.905Z,14.20
2019-02-04T20:48:14.894Z,17.33
2019-02-04T20:53:16.988Z,15.50
2019-02-04T20:58:19.220Z,14.23
2019-02-04T21:03:21.056Z,20.07
2019-02-04T21:08:23.400Z,6.80
2019-02-04T21:13:25.119Z,11.90
2019-02-04T21:18:26.880Z,10.90
2019-02-04T21:23:28.966Z,10.77
2019-02-04T21:28:30.690Z,10.20
2019-02-04T21:33:32.372Z,15.37
2019-02-04T21:38:34.359Z,18.10
2019-02-04T21:43:36.078Z,15.33
2019-02-04T21:48:37.843Z,14.97
2019-02-04T21:53:39.461Z,18.90
2019-02-04T21:58:41.492Z,13.00
2019-02-04T22:03:43.322Z,14.57
2019-02-04T22:08:45.000Z,13.90
2019-02-04T22:13:46.664Z,16.43
2019-02-04T22:18:48.452Z,15.43
2019-02-04T22:23:50.324Z,13.67
2019-02-04T22:28:52.091Z,18.37
2019-02-04T22:33:53.999Z,15.00
2019-02-04T22:38:56.570Z,21.83
2019-02-04T22:43:58.236Z,28.50
2019-02-04T22:49:00.023Z,23.93
2019-02-04T22:54:01.783Z,26.90
2019-02-04T22:59:04.022Z,26.73
2019-02-04T23:04:05.864Z,22.70
2019-02-04T23:09:07.810Z,33.60
2019-02-04T23:14:09.605Z,29.63
2019-02-04T23:19:11.673Z,29.53
2019-02-04T23:24:13.622Z,33.57
2019-02-04T23:29:15.394Z,35.20
2019-02-04T23:34:17.587Z,31.03
2019-02-04T23:39:19.892Z,36.20
2019-02-04T23:44:21.537Z,34.50
2019-02-04T23:49:23.528Z,36.00
2019-02-04T23:54:25.190Z,46.67
2019-02-04T23:59:27.108Z,30.07
